createdAt,value
2023-03-13T00:01:39.002Z,100206.75
2023-03-13T00:04:06.339Z,100202.53
2023-03-13T00:06:38.399Z,100199.97
2023-03-13T00:09:07.265Z,100186.38
2023-03-13T00:11:34.196Z,100178.22
2023-03-13T00:14:02.998Z,100174.47
2023-03-13T00:16:30.644Z,100170.06
2023-03-13T00:18:58.451Z,100160.88
2023-03-13T00:21:27.337Z,100161.91
2023-03-13T00:23:53.953Z,100157.50
2023-03-13T00:26:23.687Z,100143.91
2023-03-13T00:28:51.511Z,100157.31
2023-03-13T00:31:19.657Z,100136.59
2023-03-13T00:33:52.133Z,100142.19
2023-03-13T00:36:24.354Z,100128.59
2023-03-13T00:38:52.112Z,100119.41
2023-03-13T00:41:21.424Z,100122.13
2023-03-13T00:43:48.609Z,100119.59
2023-03-13T00:46:17.267Z,100117.53
2023-03-13T00:48:44.059Z,100109.19
2023-03-13T00:51:13.365Z,100106.66
2023-03-13T00:53:40.277Z,100102.91
2023-03-13T00:56:12.223Z,100096.63
2023-03-13T00:58:41.483Z,100084.06
2023-03-13T01:01:09.579Z,100079.28
2023-03-13T01:03:37.274Z,100066.53
2023-03-13T01:06:06.018Z,100064.84
2023-03-13T01:08:32.672Z,100063.81
2023-03-13T01:11:10.955Z,100063.81
2023-03-13T01:13:37.979Z,100054.63
2023-03-13T01:16:13.256Z,100045.63
2023-03-13T01:18:42.715Z,100034.75
2023-03-13T01:21:10.534Z,100027.44
2023-03-13T01:23:37.470Z,100022.00
2023-03-13T01:26:06.898Z,100014.50
2023-03-13T01:28:33.987Z,100012.63
2023-03-13T01:31:01.337Z,100001.75
2023-03-13T01:33:27.798Z,100000.03
2023-03-13T01:36:02.049Z,99995.44
2023-03-13T01:38:28.632Z,99984.75
2023-03-13T01:40:55.100Z,99970.97
2023-03-13T01:43:27.460Z,99967.41
2023-03-13T01:46:03.001Z,99971.81
2023-03-13T01:48:45.168Z,99964.88
2023-03-13T01:51:15.714Z,99963.66
2023-03-13T01:53:46.294Z,99951.94
2023-03-13T01:56:19.989Z,99947.34
2023-03-13T01:58:49.180Z,99936.47
2023-03-13T02:01:16.419Z,99926.44
2023-03-13T02:03:43.617Z,99919.13
2023-03-13T02:06:11.150Z,99921.66
2023-03-13T02:08:44.414Z,99922.69
2023-03-13T02:11:20.965Z,99909.06
2023-03-13T02:13:50.428Z,99907.88
2023-03-13T02:16:17.971Z,99895.28
2023-03-13T02:18:48.447Z,99884.41
2023-03-13T02:21:25.285Z,99882.06
2023-03-13T02:24:06.994Z,99870.63
2023-03-13T02:26:33.482Z,99868.09
2023-03-13T02:29:00.620Z,99862.84
2023-03-13T02:31:27.346Z,99862.66
2023-03-13T02:33:55.847Z,99847.38
2023-03-13T02:36:23.466Z,99840.91
2023-03-13T02:39:01.491Z,99825.41
2023-03-13T02:41:29.481Z,99810.78
2023-03-13T02:43:58.132Z,99801.13
2023-03-13T02:46:24.898Z,99812.00
2023-03-13T02:48:56.636Z,99810.13
2023-03-13T02:51:40.715Z,99820.16
2023-03-13T02:54:35.230Z,99810.97
2023-03-13T02:57:04.669Z,99805.72
2023-03-13T02:59:31.742Z,99815.38
2023-03-13T03:01:58.435Z,99819.13
2023-03-13T03:04:26.607Z,99808.06
2023-03-13T03:06:55.911Z,99814.53
2023-03-13T03:09:23.190Z,99816.22
2023-03-13T03:11:53.816Z,99815.38
2023-03-13T03:14:20.711Z,99816.22
2023-03-13T03:16:48.436Z,99808.06
2023-03-13T03:19:15.078Z,99821.66
2023-03-13T03:21:41.576Z,99813.50
2023-03-13T03:24:08.486Z,99805.16
2023-03-13T03:26:36.315Z,99811.25
2023-03-13T03:29:10.992Z,99805.16
2023-03-13T03:31:38.348Z,99818.56
2023-03-13T03:34:05.146Z,99812.28
2023-03-13T03:36:31.634Z,99799.53
2023-03-13T03:39:00.257Z,99794.94
2023-03-13T03:41:27.569Z,99798.69
2023-03-13T03:43:55.034Z,99789.50
2023-03-13T03:46:25.563Z,99793.06
2023-03-13T03:48:52.790Z,99788.28
2023-03-13T03:51:21.050Z,99792.03
2023-03-13T03:53:47.573Z,99788.09
2023-03-13T03:56:14.240Z,99786.41
2023-03-13T03:58:46.121Z,99793.91
2023-03-13T04:01:21.006Z,99787.25
2023-03-13T04:03:48.945Z,99787.25
2023-03-13T04:06:15.888Z,99785.38
2023-03-13T04:08:43.117Z,99787.25
2023-03-13T04:11:12.345Z,99773.84
2023-03-13T04:13:42.365Z,99777.22
2023-03-13T04:16:10.178Z,99773.84
2023-03-13T04:18:37.541Z,99766.31
2023-03-13T04:21:05.978Z,99764.63
2023-03-13T04:23:41.509Z,99759.19
2023-03-13T04:26:08.258Z,99763.59
2023-03-13T04:28:35.079Z,99764.63
2023-03-13T04:31:03.827Z,99760.88
2023-03-13T04:33:48.826Z,99766.50
2023-03-13T04:36:27.801Z,99757.31
2023-03-13T04:39:16.920Z,99749.34
2023-03-13T04:41:59.025Z,99738.47
2023-03-13T04:44:45.458Z,99735.56
2023-03-13T04:47:22.755Z,99739.31
2023-03-13T04:50:10.092Z,99730.13
2023-03-13T04:52:44.453Z,99718.22
2023-03-13T04:55:20.151Z,99717.38
2023-03-13T04:58:00.558Z,99703.75
2023-03-13T05:01:00.101Z,99712.56
2023-03-13T05:03:34.473Z,99700.84
2023-03-13T05:06:29.940Z,99709.84
2023-03-13T05:09:25.555Z,99699.63
2023-03-13T05:12:17.975Z,99704.22
2023-03-13T05:14:47.132Z,99696.91
2023-03-13T05:17:32.167Z,99694.19
2023-03-13T05:20:20.659Z,99690.63
2023-03-13T05:23:01.761Z,99669.88
2023-03-13T05:25:55.938Z,99681.63
2023-03-13T05:28:49.436Z,99676.38
2023-03-13T05:31:28.129Z,99687.91
2023-03-13T05:34:17.406Z,99683.31
2023-03-13T05:37:13.148Z,99684.34
2023-03-13T05:39:58.414Z,99666.78
2023-03-13T05:42:39.232Z,99674.75
2023-03-13T05:45:19.376Z,99681.22
2023-03-13T05:48:08.789Z,99684.16
2023-03-13T05:51:02.512Z,99678.91
2023-03-13T05:53:44.131Z,99692.50
2023-03-13T05:56:33.828Z,99686.69
2023-03-13T05:59:23.537Z,99685.84
2023-03-13T06:02:10.472Z,99694.00
2023-03-13T06:04:41.919Z,99676.63
2023-03-13T06:07:08.690Z,99679.16
2023-03-13T06:09:35.194Z,99680.00
2023-03-13T06:12:01.875Z,99677.28
2023-03-13T06:14:29.149Z,99675.41
2023-03-13T06:17:21.917Z,99682.53
2023-03-13T06:19:48.422Z,99682.72
2023-03-13T06:22:16.790Z,99676.25
2023-03-13T06:24:45.024Z,99679.63
2023-03-13T06:27:11.504Z,99681.50
2023-03-13T06:29:37.925Z,99683.19
2023-03-13T06:32:04.861Z,99674.00
2023-03-13T06:34:31.388Z,99670.44
2023-03-13T06:36:58.770Z,99669.59
2023-03-13T06:39:25.264Z,99675.03
2023-03-13T06:41:51.859Z,99672.13
2023-03-13T06:44:18.377Z,99666.88
2023-03-13T06:46:44.893Z,99677.75
2023-03-13T06:49:11.429Z,99665.00
2023-03-13T06:51:37.900Z,99670.44
2023-03-13T06:54:04.347Z,99665.00
2023-03-13T06:56:30.881Z,99674.00
2023-03-13T06:58:59.520Z,99672.13
2023-03-13T07:01:26.804Z,99671.09
2023-03-13T07:03:53.657Z,99671.09
2023-03-13T07:06:20.168Z,99676.53
2023-03-13T07:08:48.127Z,99670.25
2023-03-13T07:11:17.833Z,99659.75
2023-03-13T07:13:44.468Z,99669.19
2023-03-13T07:16:13.413Z,99669.84
2023-03-13T07:18:44.855Z,99663.63
2023-03-13T07:21:12.321Z,99658.00
2023-03-13T07:23:39.190Z,99655.09
2023-03-13T07:26:13.507Z,99655.09
2023-03-13T07:28:40.096Z,99663.91
2023-03-13T07:31:12.838Z,99667.94
2023-03-13T07:33:39.621Z,99667.53
2023-03-13T07:36:06.875Z,99659.00
2023-03-13T07:38:33.929Z,99664.97
2023-03-13T07:41:00.475Z,99660.47
2023-03-13T07:43:27.214Z,99665.41
2023-03-13T07:45:58.403Z,99658.84
2023-03-13T07:48:28.910Z,99663.84
2023-03-13T07:50:55.723Z,99667.59
2023-03-13T07:53:22.732Z,99659.81
2023-03-13T07:56:03.476Z,99659.34
2023-03-13T07:58:32.084Z,99663.50
2023-03-13T08:00:59.574Z,99665.19
2023-03-13T08:03:28.788Z,99653.25
2023-03-13T08:06:08.371Z,99658.31
2023-03-13T08:08:35.861Z,99664.78
2023-03-13T08:11:05.129Z,99661.03
2023-03-13T08:13:34.954Z,99675.69
2023-03-13T08:16:05.649Z,99672.19
2023-03-13T08:18:35.096Z,99654.00
2023-03-13T08:21:03.886Z,99671.41
2023-03-13T08:23:30.711Z,99657.44
2023-03-13T08:26:08.405Z,99656.78
2023-03-13T08:28:35.404Z,99642.78
2023-03-13T08:31:09.435Z,99645.50
2023-03-13T08:33:36.181Z,99646.59
2023-03-13T08:36:18.076Z,99636.75
2023-03-13T08:38:46.493Z,99635.91
2023-03-13T08:41:18.630Z,99633.66
2023-03-13T08:43:45.965Z,99637.59
2023-03-13T08:46:13.217Z,99641.63
2023-03-13T08:48:39.800Z,99628.22
2023-03-13T08:51:12.511Z,99640.31
2023-03-13T08:53:40.394Z,99636.94
2023-03-13T08:56:07.975Z,99636.94
2023-03-13T08:58:34.444Z,99622.25
2023-03-13T09:01:03.407Z,99629.09
2023-03-13T09:03:30.858Z,99635.59
2023-03-13T09:05:58.518Z,99626.97
2023-03-13T09:08:25.371Z,99616.47
2023-03-13T09:10:57.385Z,99620.50
2023-03-13T09:13:25.571Z,99623.59
2023-03-13T09:16:03.765Z,99621.06
2023-03-13T09:18:30.690Z,99610.00
2023-03-13T09:20:57.520Z,99603.50
2023-03-13T09:23:24.553Z,99602.03
2023-03-13T09:25:56.118Z,99596.38
2023-03-13T09:28:23.799Z,99601.56
2023-03-13T09:30:50.300Z,99592.38
2023-03-13T09:33:17.980Z,99595.75
2023-03-13T09:35:50.604Z,99592.25
2023-03-13T09:38:18.528Z,99585.38
2023-03-13T09:40:59.784Z,99585.00
2023-03-13T09:43:48.200Z,99572.59
2023-03-13T09:46:44.104Z,99563.59
2023-03-13T09:49:18.435Z,99553.56
2023-03-13T09:51:51.411Z,99556.94
2023-03-13T09:54:29.023Z,99547.09
2023-03-13T09:57:35.611Z,99541.63
2023-03-13T10:00:14.254Z,99530.56
2023-03-13T10:02:46.479Z,99544.16
2023-03-13T10:05:25.649Z,99528.03
2023-03-13T10:07:58.587Z,99530.94
2023-03-13T10:10:45.181Z,99532.63
2023-03-13T10:13:37.695Z,99544.56
2023-03-13T10:16:18.154Z,99536.78
2023-03-13T10:18:49.214Z,99544.94
2023-03-13T10:21:19.529Z,99533.22
2023-03-13T10:24:00.975Z,99525.06
2023-03-13T10:26:30.245Z,99516.69
2023-03-13T10:29:01.148Z,99524.88
2023-03-13T10:31:33.108Z,99511.06
2023-03-13T10:34:08.080Z,99528.63
2023-03-13T10:36:49.707Z,99523.38
2023-03-13T10:39:22.299Z,99515.66
2023-03-13T10:41:50.672Z,99525.50
2023-03-13T10:44:20.562Z,99518.63
2023-03-13T10:46:49.335Z,99508.59
2023-03-13T10:49:24.251Z,99514.88
2023-03-13T10:51:53.237Z,99501.25
2023-03-13T10:54:27.046Z,99499.38
2023-03-13T10:57:26.580Z,99496.88
2023-03-13T10:59:54.724Z,99489.69
2023-03-13T11:02:35.478Z,99495.31
2023-03-13T11:05:23.071Z,99482.16
2023-03-13T11:07:50.469Z,99474.84
2023-03-13T11:10:19.250Z,99475.88
2023-03-13T11:12:53.845Z,99483.00
2023-03-13T11:15:27.080Z,99478.66
2023-03-13T11:18:09.306Z,99460.69
2023-03-13T11:20:39.592Z,99471.19
2023-03-13T11:23:12.242Z,99471.19
2023-03-13T11:25:57.165Z,99459.25
2023-03-13T11:28:43.370Z,99481.44
2023-03-13T11:31:14.461Z,99462.31
2023-03-13T11:33:53.462Z,99456.50
2023-03-13T11:36:25.648Z,99457.78
2023-03-13T11:39:23.247Z,99465.94
2023-03-13T11:42:03.899Z,99460.25
2023-03-13T11:45:01.409Z,99466.53
2023-03-13T11:47:58.352Z,99454.56
2023-03-13T11:50:54.412Z,99453.97
2023-03-13T11:53:59.470Z,99463.66
2023-03-13T11:56:41.949Z,99451.78
2023-03-13T11:59:37.683Z,99445.31
2023-03-13T12:02:04.288Z,99446.16
2023-03-13T12:04:42.237Z,99436.03
2023-03-13T12:07:11.483Z,99413.22
2023-03-13T12:09:45.337Z,99413.22
2023-03-13T12:12:19.104Z,99417.00
2023-03-13T12:14:53.382Z,99395.09
2023-03-13T12:17:30.236Z,99405.16
2023-03-13T12:20:24.251Z,99400.31
2023-03-13T12:22:54.766Z,99387.97
2023-03-13T12:25:25.620Z,99398.44
2023-03-13T12:28:04.748Z,99385.06
2023-03-13T12:30:42.651Z,99381.31
2023-03-13T12:33:24.600Z,99373.56
2023-03-13T12:36:01.039Z,99378.81
2023-03-13T12:38:41.043Z,99375.47
2023-03-13T12:41:25.955Z,99372.72
2023-03-13T12:44:07.775Z,99360.81
2023-03-13T12:46:46.514Z,99367.94
2023-03-13T12:49:32.989Z,99355.75
2023-03-13T12:52:22.444Z,99353.25
2023-03-13T12:54:58.106Z,99361.81
2023-03-13T12:57:51.293Z,99358.25
2023-03-13T13:00:28.451Z,99341.50
2023-03-13T13:03:42.317Z,99343.19
2023-03-13T13:06:14.498Z,99335.88
2023-03-13T13:09:01.574Z,99335.25
2023-03-13T13:11:34.472Z,99327.91
2023-03-13T13:14:21.179Z,99342.84
2023-03-13T13:16:57.354Z,99341.78
2023-03-13T13:19:23.760Z,99339.50
2023-03-13T13:22:27.930Z,99327.97
2023-03-13T13:24:56.921Z,99323.38
2023-03-13T13:27:32.497Z,99311.63
2023-03-13T13:30:04.289Z,99321.50
2023-03-13T13:32:34.488Z,99338.25
2023-03-13T13:35:19.536Z,99331.38
2023-03-13T13:37:49.323Z,99318.81
2023-03-13T13:40:16.033Z,99325.53
2023-03-13T13:42:50.169Z,99332.66
2023-03-13T13:45:16.606Z,99323.63
2023-03-13T13:47:49.620Z,99327.81
2023-03-13T13:50:25.333Z,99323.63
2023-03-13T13:52:52.835Z,99315.03
2023-03-13T13:55:48.738Z,99309.78
2023-03-13T13:58:22.522Z,99291.34
2023-03-13T14:01:11.174Z,99276.66
2023-03-13T14:03:42.240Z,99277.50
2023-03-13T14:06:16.932Z,99291.94
2023-03-13T14:08:45.895Z,99294.66
2023-03-13T14:11:27.500Z,99287.28
2023-03-13T14:14:16.594Z,99272.84
2023-03-13T14:16:48.068Z,99278.28
2023-03-13T14:19:41.155Z,99273.03
2023-03-13T14:22:14.221Z,99280.56
2023-03-13T14:24:40.952Z,99260.69
2023-03-13T14:27:18.583Z,99270.53
2023-03-13T14:30:05.152Z,99261.53
2023-03-13T14:32:31.766Z,99255.88
2023-03-13T14:34:58.268Z,99258.44
2023-03-13T14:37:45.041Z,99249.59
2023-03-13T14:40:29.708Z,99251.09
2023-03-13T14:42:59.050Z,99267.22
2023-03-13T14:45:32.063Z,99265.78
2023-03-13T14:48:05.360Z,99249.22
2023-03-13T14:50:32.286Z,99233.72
2023-03-13T14:53:05.208Z,99240.66
2023-03-13T14:55:34.748Z,99226.41
2023-03-13T14:58:05.122Z,99221.81
2023-03-13T15:00:41.125Z,99225.78
2023-03-13T15:03:16.980Z,99219.09
2023-03-13T15:05:46.115Z,99208.63
2023-03-13T15:08:18.762Z,99204.22
2023-03-13T15:10:46.111Z,99204.84
2023-03-13T15:13:37.897Z,99189.56
2023-03-13T15:16:15.091Z,99182.41
2023-03-13T15:18:41.614Z,99192.06
2023-03-13T15:21:14.015Z,99175.09
2023-03-13T15:23:42.248Z,99175.72
2023-03-13T15:26:08.815Z,99169.84
2023-03-13T15:28:35.302Z,99158.53
2023-03-13T15:31:01.773Z,99154.75
2023-03-13T15:33:29.457Z,99158.94
2023-03-13T15:35:56.489Z,99151.84
2023-03-13T15:38:25.897Z,99147.00
2023-03-13T15:40:53.600Z,99141.34
2023-03-13T15:43:22.105Z,99138.41
2023-03-13T15:45:51.804Z,99132.53
2023-03-13T15:48:22.726Z,99125.19
2023-03-13T15:50:54.648Z,99123.94
2023-03-13T15:53:29.746Z,99128.34
2023-03-13T15:55:57.544Z,99128.13
2023-03-13T15:58:24.782Z,99118.28
2023-03-13T16:00:52.586Z,99111.97
2023-03-13T16:03:22.138Z,99111.16
2023-03-13T16:05:48.941Z,99093.75
2023-03-13T16:08:34.256Z,99095.41
2023-03-13T16:11:02.079Z,99089.34
2023-03-13T16:13:28.537Z,99096.06
2023-03-13T16:15:55.054Z,99080.97
2023-03-13T16:18:23.847Z,99086.84
2023-03-13T16:20:53.700Z,99074.25
2023-03-13T16:23:20.271Z,99077.22
2023-03-13T16:25:48.445Z,99080.78
2023-03-13T16:28:15.234Z,99073.66
2023-03-13T16:30:43.735Z,99078.25
2023-03-13T16:33:11.434Z,99070.91
2023-03-13T16:35:38.235Z,99065.47
2023-03-13T16:38:04.903Z,99062.75
2023-03-13T16:40:33.761Z,99064.63
2023-03-13T16:43:01.053Z,99061.69
2023-03-13T16:45:27.943Z,99057.50
2023-03-13T16:47:54.548Z,99067.34
2023-03-13T16:50:25.455Z,99055.19
2023-03-13T16:52:53.281Z,99060.84
2023-03-13T16:55:20.876Z,99058.53
2023-03-13T16:57:47.460Z,99069.44
2023-03-13T17:00:20.027Z,99068.59
2023-03-13T17:02:46.740Z,99057.50
2023-03-13T17:05:15.882Z,99061.69
2023-03-13T17:07:44.544Z,99060.00
2023-03-13T17:10:17.927Z,99062.72
2023-03-13T17:12:44.484Z,99065.22
2023-03-13T17:15:11.252Z,99067.78
2023-03-13T17:17:38.107Z,99063.38
2023-03-13T17:20:05.868Z,99052.47
2023-03-13T17:22:32.519Z,99057.69
2023-03-13T17:24:59.026Z,99065.03
2023-03-13T17:27:25.520Z,99058.13
2023-03-13T17:29:51.968Z,99056.25
2023-03-13T17:32:18.517Z,99049.94
2023-03-13T17:34:44.984Z,99035.25
2023-03-13T17:37:15.580Z,99048.44
2023-03-13T17:39:43.667Z,99036.31
2023-03-13T17:42:10.292Z,99036.75
2023-03-13T17:44:39.115Z,99043.66
2023-03-13T17:47:17.848Z,99039.03
2023-03-13T17:49:45.011Z,99040.09
2023-03-13T17:52:16.619Z,99032.13
2023-03-13T17:54:44.777Z,99031.91
2023-03-13T17:57:15.523Z,99033.78
2023-03-13T17:59:42.743Z,99038.63
2023-03-13T18:02:14.020Z,99037.56
2023-03-13T18:04:42.562Z,99053.09
2023-03-13T18:07:29.571Z,99049.50
2023-03-13T18:09:56.174Z,99046.59
2023-03-13T18:12:22.652Z,99043.03
2023-03-13T18:14:49.186Z,99043.88
2023-03-13T18:17:20.161Z,99045.31
2023-03-13T18:19:48.272Z,99030.66
2023-03-13T18:22:17.070Z,99031.91
2023-03-13T18:24:44.548Z,99022.25
2023-03-13T18:27:16.658Z,99028.59
2023-03-13T18:29:44.771Z,99022.28
2023-03-13T18:32:13.539Z,99013.91
2023-03-13T18:34:40.588Z,99023.53
2023-03-13T18:37:24.682Z,99013.06
2023-03-13T18:39:51.378Z,98996.50
2023-03-13T18:42:18.691Z,99010.13
2023-03-13T18:44:45.240Z,99002.16
2023-03-13T18:47:13.750Z,99007.19
2023-03-13T18:49:40.301Z,99012.22
2023-03-13T18:52:07.190Z,99012.41
2023-03-13T18:54:33.703Z,98998.78
2023-03-13T18:57:00.440Z,99004.44
2023-03-13T18:59:27.062Z,98990.44
2023-03-13T19:01:54.899Z,98991.03
2023-03-13T19:04:21.575Z,98996.91
2023-03-13T19:06:48.328Z,98996.91
2023-03-13T19:09:41.586Z,98991.66
2023-03-13T19:12:04.007Z,98983.94
2023-03-13T19:14:30.490Z,98994.63
2023-03-13T19:16:58.204Z,98979.97
2023-03-13T19:19:25.696Z,98982.06
2023-03-13T19:21:55.476Z,98984.59
2023-03-13T19:24:23.981Z,98980.78
2023-03-13T19:26:53.759Z,98984.53
2023-03-13T19:29:22.930Z,98978.91
2023-03-13T19:31:49.552Z,98986.84
2023-03-13T19:34:19.579Z,98974.69
2023-03-13T19:36:48.255Z,98979.53
2023-03-13T19:39:21.478Z,98961.50
2023-03-13T19:41:48.457Z,98959.00
2023-03-13T19:44:16.183Z,98957.53
2023-03-13T19:46:45.610Z,98954.34
2023-03-13T19:49:20.427Z,98954.56
2023-03-13T19:51:48.071Z,98956.47
2023-03-13T19:54:15.237Z,98942.03
2023-03-13T19:56:45.496Z,98940.56
2023-03-13T19:59:20.255Z,98941.81
2023-03-13T20:01:47.782Z,98942.03
2023-03-13T20:04:14.377Z,98947.66
2023-03-13T20:06:42.023Z,98951.03
2023-03-13T20:09:10.924Z,98961.06
2023-03-13T20:11:38.205Z,98960.00
2023-03-13T20:14:05.987Z,98953.50
2023-03-13T20:16:34.957Z,98963.56
2023-03-13T20:19:02.464Z,98954.38
2023-03-13T20:21:31.024Z,98955.44
2023-03-13T20:23:58.523Z,98955.44
2023-03-13T20:26:26.348Z,98966.31
2023-03-13T20:28:54.182Z,98962.16
2023-03-13T20:31:23.721Z,98972.81
2023-03-13T20:33:50.256Z,98978.28
2023-03-13T20:36:19.884Z,98982.88
2023-03-13T20:38:46.796Z,98979.34
2023-03-13T20:41:13.327Z,98985.81
2023-03-13T20:43:39.958Z,98988.34
2023-03-13T20:46:09.813Z,98982.88
2023-03-13T20:48:39.320Z,98979.53
2023-03-13T20:51:07.556Z,98998.22
2023-03-13T20:53:38.969Z,98990.88
2023-03-13T20:56:07.187Z,98982.28
2023-03-13T20:58:34.744Z,98985.22
2023-03-13T21:01:02.451Z,98986.25
2023-03-13T21:03:29.280Z,98981.66
2023-03-13T21:05:55.842Z,98981.88
2023-03-13T21:08:22.805Z,98985.63
2023-03-13T21:10:49.308Z,98990.25
2023-03-13T21:13:16.842Z,98982.91
2023-03-13T21:15:43.323Z,98988.38
2023-03-13T21:18:09.973Z,99000.31
2023-03-13T21:20:37.597Z,98993.19
2023-03-13T21:23:04.125Z,98992.13
2023-03-13T21:25:30.633Z,98978.94
2023-03-13T21:27:57.249Z,98979.78
2023-03-13T21:30:24.341Z,98975.84
2023-03-13T21:32:50.865Z,98967.03
2023-03-13T21:35:17.474Z,98968.66
2023-03-13T21:37:44.286Z,98956.72
2023-03-13T21:40:11.852Z,98943.72
2023-03-13T21:42:38.366Z,98941.00
2023-03-13T21:45:06.011Z,98932.00
2023-03-13T21:47:36.687Z,98934.94
2023-03-13T21:50:05.982Z,98935.97
2023-03-13T21:52:34.409Z,98938.69
2023-03-13T21:55:03.411Z,98938.69
2023-03-13T21:57:30.005Z,98942.25
2023-03-13T21:59:56.520Z,98933.03
2023-03-13T22:02:23.181Z,98932.84
2023-03-13T22:04:49.654Z,98926.75
2023-03-13T22:07:16.090Z,98928.63
2023-03-13T22:09:42.537Z,98935.75
2023-03-13T22:12:09.086Z,98920.47
2023-03-13T22:14:35.637Z,98922.38
2023-03-13T22:17:02.109Z,98929.50
2023-03-13T22:19:28.772Z,98914.66
2023-03-13T22:21:55.269Z,98915.25
2023-03-13T22:24:21.930Z,98919.22
2023-03-13T22:26:48.485Z,98921.53
2023-03-13T22:29:14.970Z,98912.28
2023-03-13T22:31:41.399Z,98914.00
2023-03-13T22:34:07.876Z,98909.38
2023-03-13T22:36:34.318Z,98906.22
2023-03-13T22:39:00.804Z,98908.13
2023-03-13T22:41:27.269Z,98911.91
2023-03-13T22:43:53.744Z,98910.84
2023-03-13T22:46:20.271Z,98908.94
2023-03-13T22:48:46.715Z,98920.50
2023-03-13T22:51:14.411Z,98931.38
2023-03-13T22:53:42.123Z,98925.72
2023-03-13T22:56:10.655Z,98932.63
2023-03-13T22:58:37.974Z,98935.97
2023-03-13T23:01:10.198Z,98932.00
2023-03-13T23:03:36.823Z,98934.53
2023-03-13T23:06:07.946Z,98920.50
2023-03-13T23:08:35.190Z,98910.63
2023-03-13T23:11:04.790Z,98905.38
2023-03-13T23:13:31.900Z,98895.56
2023-03-13T23:15:59.298Z,98890.72
2023-03-13T23:18:27.541Z,98890.50
2023-03-13T23:20:54.659Z,98880.47
2023-03-13T23:23:21.417Z,98888.44
2023-03-13T23:25:48.309Z,98895.75
2023-03-13T23:28:14.990Z,98883.16
2023-03-13T23:30:41.936Z,98884.22
2023-03-13T23:33:08.471Z,98880.03
2023-03-13T23:35:37.247Z,98869.75
2023-03-13T23:38:03.717Z,98868.34
2023-03-13T23:40:30.256Z,98873.34
2023-03-13T23:42:56.770Z,98870.63
2023-03-13T23:45:23.335Z,98880.91
2023-03-13T23:47:52.637Z,98884.03
2023-03-13T23:50:19.188Z,98882.75
2023-03-13T23:52:45.746Z,98873.75
2023-03-13T23:55:12.209Z,98881.94
2023-03-13T23:57:38.772Z,98896.81
